sensor_id;sensor_type;location;lat;lon;timestamp;pressure;altitude;pressure_sealevel;temperature;humidity
74346;BME280;62776;50.518;6.732;2024-01-06T00:00:26;95238.94;;;5.45;100.00
74346;BME280;62776;50.518;6.732;2024-01-06T00:03:15;95246.75;;;5.41;100.00
74346;BME280;62776;50.518;6.732;2024-01-06T00:06:01;95248.50;;;5.37;100.00
74346;BME280;62776;50.518;6.732;2024-01-06T00:08:48;95243.31;;;5.38;100.00
74346;BME280;62776;50.518;6.732;2024-01-06T00:11:39;95239.88;;;5.40;100.00
74346;BME280;62776;50.518;6.732;2024-01-06T00:14:26;95239.88;;;5.40;100.00
74346;BME280;62776;50.518;6.732;2024-01-06T00:17:12;95231.31;;;5.38;100.00
74346;BME280;62776;50.518;6.732;2024-01-06T00:19:59;95236.44;;;5.39;100.00
74346;BME280;62776;50.518;6.732;2024-01-06T00:22:48;95242.47;;;5.38;100.00
74346;BME280;62776;50.518;6.732;2024-01-06T00:25:34;95239.00;;;5.41;100.00
74346;BME280;62776;50.518;6.732;2024-01-06T00:28:23;95240.75;;;5.37;100.00
74346;BME280;62776;50.518;6.732;2024-01-06T00:31:11;95240.75;;;5.37;100.00
74346;BME280;62776;50.518;6.732;2024-01-06T00:34:00;95235.69;;;5.32;100.00
74346;BME280;62776;50.518;6.732;2024-01-06T00:36:49;95244.25;;;5.31;100.00
74346;BME280;62776;50.518;6.732;2024-01-06T00:39:35;95245.09;;;5.35;100.00
74346;BME280;62776;50.518;6.732;2024-01-06T00:42:21;95237.38;;;5.30;100.00
74346;BME280;62776;50.518;6.732;2024-01-06T00:45:08;95240.03;;;5.26;100.00
74346;BME280;62776;50.518;6.732;2024-01-06T00:47:54;95250.34;;;5.26;100.00
74346;BME280;62776;50.518;6.732;2024-01-06T00:50:41;95249.47;;;5.25;100.00
74346;BME280;62776;50.518;6.732;2024-01-06T00:53:27;95250.31;;;5.27;100.00
74346;BME280;62776;50.518;6.732;2024-01-06T00:56:13;95254.59;;;5.30;100.00
74346;BME280;62776;50.518;6.732;2024-01-06T00:59:00;95256.25;;;5.35;100.00
74346;BME280;62776;50.518;6.732;2024-01-06T01:01:49;95251.97;;;5.34;100.00
74346;BME280;62776;50.518;6.732;2024-01-06T01:04:35;95258.84;;;5.31;100.00
74346;BME280;62776;50.518;6.732;2024-01-06T01:07:21;95262.25;;;5.34;100.00
74346;BME280;62776;50.518;6.732;2024-01-06T01:10:07;95257.03;;;5.41;100.00
74346;BME280;62776;50.518;6.732;2024-01-06T01:12:54;95265.56;;;5.44;100.00
74346;BME280;62776;50.518;6.732;2024-01-06T01:15:41;95271.63;;;5.43;100.00
74346;BME280;62776;50.518;6.732;2024-01-06T01:18:27;95263.84;;;5.45;100.00
74346;BME280;62776;50.518;6.732;2024-01-06T01:21:13;95272.47;;;5.44;100.00
74346;BME280;62776;50.518;6.732;2024-01-06T01:24:00;95268.13;;;5.47;100.00
74346;BME280;62776;50.518;6.732;2024-01-06T01:26:46;95271.59;;;5.46;100.00
74346;BME280;62776;50.518;6.732;2024-01-06T01:29:32;95279.28;;;5.48;100.00
74346;BME280;62776;50.518;6.732;2024-01-06T01:32:20;95288.72;;;5.49;100.00
74346;BME280;62776;50.518;6.732;2024-01-06T01:35:07;95288.69;;;5.52;100.00
74346;BME280;62776;50.518;6.732;2024-01-06T01:37:53;95288.66;;;5.53;100.00
74346;BME280;62776;50.518;6.732;2024-01-06T01:40:39;95295.50;;;5.57;100.00
74346;BME280;62776;50.518;6.732;2024-01-06T01:43:26;95298.88;;;5.61;100.00
74346;BME280;62776;50.518;6.732;2024-01-06T01:46:14;95292.88;;;5.62;100.00
74346;BME280;62776;50.518;6.732;2024-01-06T01:49:01;95303.22;;;5.59;100.00
74346;BME280;62776;50.518;6.732;2024-01-06T01:51:49;95298.94;;;5.56;100.00
74346;BME280;62776;50.518;6.732;2024-01-06T01:54:41;95302.38;;;5.55;100.00
74346;BME280;62776;50.518;6.732;2024-01-06T01:57:29;95304.94;;;5.60;100.00
74346;BME280;62776;50.518;6.732;2024-01-06T02:00:15;95309.22;;;5.58;100.00
74346;BME280;62776;50.518;6.732;2024-01-06T02:03:04;95298.97;;;5.53;100.00
74346;BME280;62776;50.518;6.732;2024-01-06T02:05:31;95307.50;;;5.60;100.00
74346;BME280;62776;50.518;6.732;2024-01-06T02:08:18;95308.38;;;5.59;100.00
74346;BME280;62776;50.518;6.732;2024-01-06T02:11:05;95308.44;;;5.53;100.00
74346;BME280;62776;50.518;6.732;2024-01-06T02:13:52;95309.25;;;5.56;100.00
74346;BME280;62776;50.518;6.732;2024-01-06T02:16:38;95310.97;;;5.57;100.00
74346;BME280;62776;50.518;6.732;2024-01-06T02:19:25;95301.56;;;5.55;100.00
74346;BME280;62776;50.518;6.732;2024-01-06T02:22:11;95307.63;;;5.49;100.00
74346;BME280;62776;50.518;6.732;2024-01-06T02:24:58;95312.84;;;5.43;100.00
74346;BME280;62776;50.518;6.732;2024-01-06T02:27:44;95321.47;;;5.38;100.00
74346;BME280;62776;50.518;6.732;2024-01-06T02:30:31;95322.38;;;5.33;100.00
74346;BME280;62776;50.518;6.732;2024-01-06T02:33:19;95332.69;;;5.33;100.00
74346;BME280;62776;50.518;6.732;2024-01-06T02:36:05;95330.13;;;5.30;100.00
74346;BME280;62776;50.518;6.732;2024-01-06T02:38:52;95342.16;;;5.31;100.00
74346;BME280;62776;50.518;6.732;2024-01-06T02:41:39;95337.81;;;5.33;100.00
74346;BME280;62776;50.518;6.732;2024-01-06T02:44:25;95346.38;;;5.37;100.00
74346;BME280;62776;50.518;6.732;2024-01-06T02:47:11;95347.22;;;5.39;100.00
74346;BME280;62776;50.518;6.732;2024-01-06T02:49:57;95360.97;;;5.40;100.00
74346;BME280;62776;50.518;6.732;2024-01-06T02:52:50;95356.66;;;5.38;100.00
74346;BME280;62776;50.518;6.732;2024-01-06T02:55:36;95358.41;;;5.38;100.00
74346;BME280;62776;50.518;6.732;2024-01-06T02:58:23;95360.13;;;5.38;100.00
74346;BME280;62776;50.518;6.732;2024-01-06T03:01:10;95360.09;;;5.39;100.00
74346;BME280;62776;50.518;6.732;2024-01-06T03:03:57;95373.00;;;5.36;100.00
74346;BME280;62776;50.518;6.732;2024-01-06T03:06:43;95374.75;;;5.35;100.00
74346;BME280;62776;50.518;6.732;2024-01-06T03:09:29;95387.59;;;5.38;100.00
74346;BME280;62776;50.518;6.732;2024-01-06T03:12:16;95382.44;;;5.40;100.00
74346;BME280;62776;50.518;6.732;2024-01-06T03:15:03;95379.81;;;5.42;100.00
74346;BME280;62776;50.518;6.732;2024-01-06T03:17:50;95384.13;;;5.43;100.00
74346;BME280;62776;50.518;6.732;2024-01-06T03:20:36;95384.09;;;5.46;100.00
74346;BME280;62776;50.518;6.732;2024-01-06T03:23:22;95384.91;;;5.51;100.00
74346;BME280;62776;50.518;6.732;2024-01-06T03:26:08;95393.47;;;5.53;100.00
74346;BME280;62776;50.518;6.732;2024-01-06T03:28:55;95384.03;;;5.55;100.00
74346;BME280;62776;50.518;6.732;2024-01-06T03:31:46;95384.03;;;5.55;100.00
74346;BME280;62776;50.518;6.732;2024-01-06T03:34:32;95384.84;;;5.55;100.00
74346;BME280;62776;50.518;6.732;2024-01-06T03:37:18;95393.44;;;5.57;100.00
74346;BME280;62776;50.518;6.732;2024-01-06T03:40:05;95396.00;;;5.59;100.00
74346;BME280;62776;50.518;6.732;2024-01-06T03:42:52;95393.41;;;5.60;100.00
74346;BME280;62776;50.518;6.732;2024-01-06T03:45:41;95393.41;;;5.60;100.00
74346;BME280;62776;50.518;6.732;2024-01-06T03:48:27;95396.84;;;5.58;100.00
74346;BME280;62776;50.518;6.732;2024-01-06T03:51:14;95396.03;;;5.54;100.00
74346;BME280;62776;50.518;6.732;2024-01-06T03:54:01;95400.28;;;5.60;100.00
74346;BME280;62776;50.518;6.732;2024-01-06T03:56:47;95396.84;;;5.59;100.00
74346;BME280;62776;50.518;6.732;2024-01-06T03:59:33;95401.16;;;5.56;100.00
74346;BME280;62776;50.518;6.732;2024-01-06T04:02:19;95409.72;;;5.58;100.00
74346;BME280;62776;50.518;6.732;2024-01-06T04:05:05;95413.16;;;5.63;100.00
74346;BME280;62776;50.518;6.732;2024-01-06T04:07:51;95403.69;;;5.62;100.00
74346;BME280;62776;50.518;6.732;2024-01-06T04:10:38;95410.56;;;5.61;100.00
74346;BME280;62776;50.518;6.732;2024-01-06T04:13:24;95413.97;;;5.63;100.00
74346;BME280;62776;50.518;6.732;2024-01-06T04:16:10;95419.97;;;5.67;100.00
74346;BME280;62776;50.518;6.732;2024-01-06T04:18:57;95415.66;;;5.67;100.00
74346;BME280;62776;50.518;6.732;2024-01-06T04:21:44;95426.84;;;5.66;100.00
74346;BME280;62776;50.518;6.732;2024-01-06T04:24:30;95421.66;;;5.71;100.00
74346;BME280;62776;50.518;6.732;2024-01-06T04:27:18;95421.66;;;5.71;100.00
74346;BME280;62776;50.518;6.732;2024-01-06T04:30:04;95415.63;;;5.69;100.00
74346;BME280;62776;50.518;6.732;2024-01-06T04:32:51;95415.66;;;5.67;100.00
74346;BME280;62776;50.518;6.732;2024-01-06T04:35:37;95411.44;;;5.62;100.00
74346;BME280;62776;50.518;6.732;2024-01-06T04:38:23;95413.16;;;5.60;100.00
74346;BME280;62776;50.518;6.732;2024-01-06T04:41:10;95414.88;;;5.61;100.00
74346;BME280;62776;50.518;6.732;2024-01-06T04:43:56;95405.47;;;5.57;100.00
74346;BME280;62776;50.518;6.732;2024-01-06T04:46:42;95413.19;;;5.55;100.00
74346;BME280;62776;50.518;6.732;2024-01-06T04:49:28;95419.22;;;5.56;100.00
74346;BME280;62776;50.518;6.732;2024-01-06T04:52:15;95408.94;;;5.54;100.00
74346;BME280;62776;50.518;6.732;2024-01-06T04:55:01;95408.97;;;5.51;100.00
74346;BME280;62776;50.518;6.732;2024-01-06T04:57:49;95416.75;;;5.44;100.00
74346;BME280;62776;50.518;6.732;2024-01-06T05:00:36;95412.50;;;5.36;100.00
74346;BME280;62776;50.518;6.732;2024-01-06T05:03:22;95422.06;;;5.27;100.00
74346;BME280;62776;50.518;6.732;2024-01-06T05:06:08;95419.47;;;5.27;100.00
74346;BME280;62776;50.518;6.732;2024-01-06T05:08:54;95428.94;;;5.26;100.00
74346;BME280;62776;50.518;6.732;2024-01-06T05:11:44;95428.94;;;5.26;100.00
74346;BME280;62776;50.518;6.732;2024-01-06T05:14:30;95431.47;;;5.28;100.00
74346;BME280;62776;50.518;6.732;2024-01-06T05:17:16;95429.78;;;5.27;100.00
74346;BME280;62776;50.518;6.732;2024-01-06T05:20:02;95429.81;;;5.24;100.00
74346;BME280;62776;50.518;6.732;2024-01-06T05:22:49;95432.38;;;5.27;100.00
74346;BME280;62776;50.518;6.732;2024-01-06T05:25:35;95437.50;;;5.30;100.00
74346;BME280;62776;50.518;6.732;2024-01-06T05:28:22;95435.75;;;5.32;100.00
74346;BME280;62776;50.518;6.732;2024-01-06T05:31:08;95440.88;;;5.33;100.00
74346;BME280;62776;50.518;6.732;2024-01-06T05:33:54;95433.16;;;5.35;100.00
74346;BME280;62776;50.518;6.732;2024-01-06T05:36:40;95434.00;;;5.35;100.00
74346;BME280;62776;50.518;6.732;2024-01-06T05:39:26;95434.81;;;5.39;100.00
74346;BME280;62776;50.518;6.732;2024-01-06T05:42:13;95431.38;;;5.38;100.00
74346;BME280;62776;50.518;6.732;2024-01-06T05:45:03;95430.53;;;5.40;100.00
74346;BME280;62776;50.518;6.732;2024-01-06T05:47:50;95433.09;;;5.43;100.00
74346;BME280;62776;50.518;6.732;2024-01-06T05:50:38;95441.66;;;5.46;100.00
74346;BME280;62776;50.518;6.732;2024-01-06T05:53:30;95441.66;;;5.45;100.00
74346;BME280;62776;50.518;6.732;2024-01-06T05:56:27;95445.97;;;5.40;100.00
74346;BME280;62776;50.518;6.732;2024-01-06T05:59:15;95445.91;;;5.49;100.00
74346;BME280;62776;50.518;6.732;2024-01-06T06:02:02;95449.31;;;5.52;100.00
74346;BME280;62776;50.518;6.732;2024-01-06T06:04:48;95463.03;;;5.53;100.00
74346;BME280;62776;50.518;6.732;2024-01-06T06:07:34;95461.34;;;5.55;100.00
74346;BME280;62776;50.518;6.732;2024-01-06T06:10:24;95463.88;;;5.56;100.00
74346;BME280;62776;50.518;6.732;2024-01-06T06:13:26;95472.47;;;5.57;100.00
74346;BME280;62776;50.518;6.732;2024-01-06T06:16:12;95487.00;;;5.64;100.00
74346;BME280;62776;50.518;6.732;2024-01-06T06:18:58;95493.03;;;5.64;100.00
74346;BME280;62776;50.518;6.732;2024-01-06T06:21:45;95482.72;;;5.66;100.00
74346;BME280;62776;50.518;6.732;2024-01-06T06:24:32;95495.63;;;5.61;100.00
74346;BME280;62776;50.518;6.732;2024-01-06T06:27:18;95500.81;;;5.55;100.00
74346;BME280;62776;50.518;6.732;2024-01-06T06:30:05;95501.75;;;5.48;100.00
74346;BME280;62776;50.518;6.732;2024-01-06T06:32:52;95501.81;;;5.41;100.00
74346;BME280;62776;50.518;6.732;2024-01-06T06:35:40;95513.00;;;5.36;100.00
74346;BME280;62776;50.518;6.732;2024-01-06T06:38:28;95516.53;;;5.23;100.00
74346;BME280;62776;50.518;6.732;2024-01-06T06:41:14;95530.34;;;5.10;100.00
74346;BME280;62776;50.518;6.732;2024-01-06T06:44:00;95525.25;;;5.00;100.00
74346;BME280;62776;50.518;6.732;2024-01-06T06:46:46;95534.72;;;4.99;100.00
74346;BME280;62776;50.518;6.732;2024-01-06T06:49:33;95544.19;;;4.88;100.00
74346;BME280;62776;50.518;6.732;2024-01-06T06:52:19;95548.47;;;4.91;100.00
74346;BME280;62776;50.518;6.732;2024-01-06T06:55:05;95552.78;;;4.87;100.00
74346;BME280;62776;50.518;6.732;2024-01-06T06:57:51;95557.06;;;4.84;100.00
74346;BME280;62776;50.518;6.732;2024-01-06T07:00:38;95567.41;;;4.78;100.00
74346;BME280;62776;50.518;6.732;2024-01-06T07:03:26;95569.16;;;4.71;100.00
74346;BME280;62776;50.518;6.732;2024-01-06T07:06:13;95564.84;;;4.74;100.00
74346;BME280;62776;50.518;6.732;2024-01-06T07:09:00;95577.69;;;4.79;100.00
74346;BME280;62776;50.518;6.732;2024-01-06T07:11:46;95580.25;;;4.79;100.00
74346;BME280;62776;50.518;6.732;2024-01-06T07:14:32;95578.53;;;4.84;100.00
74346;BME280;62776;50.518;6.732;2024-01-06T07:17:19;95583.66;;;4.84;100.00
74346;BME280;62776;50.518;6.732;2024-01-06T07:20:06;95594.84;;;4.82;100.00
74346;BME280;62776;50.518;6.732;2024-01-06T07:22:53;95600.00;;;4.82;100.00
74346;BME280;62776;50.518;6.732;2024-01-06T07:25:39;95598.31;;;4.78;100.00
74346;BME280;62776;50.518;6.732;2024-01-06T07:28:26;95611.19;;;4.70;100.00
74346;BME280;62776;50.518;6.732;2024-01-06T07:31:12;95612.91;;;4.68;100.00
74346;BME280;62776;50.518;6.732;2024-01-06T07:33:59;95616.38;;;4.64;100.00
74346;BME280;62776;50.518;6.732;2024-01-06T07:36:45;95618.94;;;4.61;100.00
74346;BME280;62776;50.518;6.732;2024-01-06T07:39:31;95614.66;;;4.55;100.00
74346;BME280;62776;50.518;6.732;2024-01-06T07:42:18;95621.53;;;4.52;100.00
74346;BME280;62776;50.518;6.732;2024-01-06T07:45:05;95621.53;;;4.43;100.00
74346;BME280;62776;50.518;6.732;2024-01-06T07:47:53;95630.13;;;4.45;100.00
74346;BME280;62776;50.518;6.732;2024-01-06T07:50:39;95631.84;;;4.44;100.00
74346;BME280;62776;50.518;6.732;2024-01-06T07:53:25;95639.53;;;4.46;100.00
74346;BME280;62776;50.518;6.732;2024-01-06T07:56:12;95639.56;;;4.47;100.00
74346;BME280;62776;50.518;6.732;2024-01-06T07:58:58;95643.84;;;4.47;100.00
74346;BME280;62776;50.518;6.732;2024-01-06T08:01:44;95654.97;;;4.49;100.00
74346;BME280;62776;50.518;6.732;2024-01-06T08:04:30;95660.09;;;4.53;100.00
74346;BME280;62776;50.518;6.732;2024-01-06T08:07:16;95673.00;;;4.46;100.00
74346;BME280;62776;50.518;6.732;2024-01-06T08:10:03;95676.41;;;4.51;100.00
74346;BME280;62776;50.518;6.732;2024-01-06T08:12:56;95679.84;;;4.48;100.00
74346;BME280;62776;50.518;6.732;2024-01-06T08:15:42;95686.69;;;4.51;100.00
74346;BME280;62776;50.518;6.732;2024-01-06T08:18:29;95684.13;;;4.48;100.00
74346;BME280;62776;50.518;6.732;2024-01-06T08:21:15;95695.28;;;4.42;100.00
74346;BME280;62776;50.518;6.732;2024-01-06T08:24:01;95689.31;;;4.42;100.00
74346;BME280;62776;50.518;6.732;2024-01-06T08:26:48;95696.13;;;4.40;100.00
74346;BME280;62776;50.518;6.732;2024-01-06T08:29:34;95702.16;;;4.39;100.00
74346;BME280;62776;50.518;6.732;2024-01-06T08:32:21;95701.31;;;4.38;100.00
74346;BME280;62776;50.518;6.732;2024-01-06T08:35:07;95710.72;;;4.42;100.00
74346;BME280;62776;50.518;6.732;2024-01-06T08:37:54;95710.72;;;4.45;100.00
74346;BME280;62776;50.518;6.732;2024-01-06T08:40:40;95707.28;;;4.46;100.00
74346;BME280;62776;50.518;6.732;2024-01-06T08:43:28;95715.88;;;4.44;100.00
74346;BME280;62776;50.518;6.732;2024-01-06T08:46:14;95717.59;;;4.33;100.00
74346;BME280;62776;50.518;6.732;2024-01-06T08:49:00;95717.56;;;4.24;100.00
74346;BME280;62776;50.518;6.732;2024-01-06T08:51:48;95726.16;;;4.16;100.00
74346;BME280;62776;50.518;6.732;2024-01-06T08:54:34;95722.72;;;4.21;100.00
74346;BME280;62776;50.518;6.732;2024-01-06T08:57:21;95729.59;;;4.18;100.00
74346;BME280;62776;50.518;6.732;2024-01-06T09:00:08;95730.44;;;4.11;100.00
74346;BME280;62776;50.518;6.732;2024-01-06T09:02:56;95738.16;;;4.13;100.00
74346;BME280;62776;50.518;6.732;2024-01-06T09:05:42;95738.16;;;4.05;100.00
74346;BME280;62776;50.518;6.732;2024-01-06T09:08:28;95748.44;;;4.08;100.00
74346;BME280;62776;50.518;6.732;2024-01-06T09:11:14;95752.72;;;4.06;100.00
74346;BME280;62776;50.518;6.732;2024-01-06T09:14:01;95756.97;;;4.01;100.00
74346;BME280;62776;50.518;6.732;2024-01-06T09:16:48;95760.41;;;3.94;100.00
74346;BME280;62776;50.518;6.732;2024-01-06T09:19:34;95762.94;;;3.93;100.00
74346;BME280;62776;50.518;6.732;2024-01-06T09:22:20;95768.97;;;3.87;100.00
74346;BME280;62776;50.518;6.732;2024-01-06T09:25:07;95768.09;;;3.84;100.00
74346;BME280;62776;50.518;6.732;2024-01-06T09:27:53;95769.81;;;3.89;100.00
74346;BME280;62776;50.518;6.732;2024-01-06T09:30:43;95769.81;;;3.82;100.00
74346;BME280;62776;50.518;6.732;2024-01-06T09:33:33;95770.63;;;3.78;100.00
74346;BME280;62776;50.518;6.732;2024-01-06T09:36:23;95776.63;;;3.80;100.00
74346;BME280;62776;50.518;6.732;2024-01-06T09:39:09;95783.47;;;3.79;100.00
74346;BME280;62776;50.518;6.732;2024-01-06T09:41:57;95780.91;;;3.73;100.00
74346;BME280;62776;50.518;6.732;2024-01-06T09:44:44;95789.47;;;3.72;100.00
74346;BME280;62776;50.518;6.732;2024-01-06T09:47:34;95791.16;;;3.72;100.00
74346;BME280;62776;50.518;6.732;2024-01-06T09:50:25;95795.50;;;3.79;100.00
74346;BME280;62776;50.518;6.732;2024-01-06T09:53:12;95804.06;;;3.85;100.00
74346;BME280;62776;50.518;6.732;2024-01-06T09:56:00;95792.06;;;3.90;100.00
74346;BME280;62776;50.518;6.732;2024-01-06T09:58:46;95799.81;;;3.92;100.00
74346;BME280;62776;50.518;6.732;2024-01-06T10:01:33;95800.69;;;3.92;100.00
74346;BME280;62776;50.518;6.732;2024-01-06T10:04:19;95792.97;;;3.95;100.00
74346;BME280;62776;50.518;6.732;2024-01-06T10:07:05;95811.81;;;3.94;100.00
74346;BME280;62776;50.518;6.732;2024-01-06T10:09:57;95813.50;;;3.88;100.00
74346;BME280;62776;50.518;6.732;2024-01-06T10:12:46;95805.84;;;3.95;100.00
74346;BME280;62776;50.518;6.732;2024-01-06T10:15:32;95816.13;;;4.00;100.00
74346;BME280;62776;50.518;6.732;2024-01-06T10:18:25;95820.41;;;3.99;100.00
74346;BME280;62776;50.518;6.732;2024-01-06T10:21:15;95818.69;;;3.95;100.00
74346;BME280;62776;50.518;6.732;2024-01-06T10:24:03;95816.94;;;3.90;100.00
74346;BME280;62776;50.518;6.732;2024-01-06T10:26:49;95816.06;;;3.86;100.00
74346;BME280;62776;50.518;6.732;2024-01-06T10:29:36;95818.59;;;3.77;100.00
74346;BME280;62776;50.518;6.732;2024-01-06T10:32:23;95822.88;;;3.75;100.00
74346;BME280;62776;50.518;6.732;2024-01-06T10:35:17;95825.44;;;3.69;100.00
74346;BME280;62776;50.518;6.732;2024-01-06T10:38:04;95826.25;;;3.64;100.00
74346;BME280;62776;50.518;6.732;2024-01-06T10:41:19;95830.44;;;3.45;100.00
74346;BME280;62776;50.518;6.732;2024-01-06T10:44:09;95837.41;;;3.64;100.00
74346;BME280;62776;50.518;6.732;2024-01-06T10:46:58;95832.25;;;3.60;100.00
74346;BME280;62776;50.518;6.732;2024-01-06T10:49:46;95833.97;;;3.59;100.00
74346;BME280;62776;50.518;6.732;2024-01-06T10:52:32;95833.13;;;3.66;100.00
74346;BME280;62776;50.518;6.732;2024-01-06T10:55:23;95828.72;;;3.44;100.00
74346;BME280;62776;50.518;6.732;2024-01-06T10:58:15;95836.44;;;3.42;100.00
74346;BME280;62776;50.518;6.732;2024-01-06T11:01:08;95838.97;;;3.36;100.00
74346;BME280;62776;50.518;6.732;2024-01-06T11:03:55;95832.13;;;3.40;100.00
74346;BME280;62776;50.518;6.732;2024-01-06T11:06:42;95836.41;;;3.39;100.00
74346;BME280;62776;50.518;6.732;2024-01-06T11:09:35;95833.84;;;3.39;100.00
74346;BME280;62776;50.518;6.732;2024-01-06T11:12:23;95841.53;;;3.41;100.00
74346;BME280;62776;50.518;6.732;2024-01-06T11:15:41;95838.06;;;3.30;100.00
74346;BME280;62776;50.518;6.732;2024-01-06T11:21:22;95836.47;;;3.45;100.00
74346;BME280;62776;50.518;6.732;2024-01-06T11:24:14;95838.97;;;3.41;100.00
74346;BME280;62776;50.518;6.732;2024-01-06T11:27:04;95838.13;;;3.43;100.00
74346;BME280;62776;50.518;6.732;2024-01-06T11:29:59;95831.28;;;3.44;100.00
74346;BME280;62776;50.518;6.732;2024-01-06T11:32:53;95830.44;;;3.45;100.00
74346;BME280;62776;50.518;6.732;2024-01-06T11:35:43;95839.00;;;3.44;100.00
74346;BME280;62776;50.518;6.732;2024-01-06T11:38:37;95844.09;;;3.35;100.00
74346;BME280;62776;50.518;6.732;2024-01-06T11:41:51;95840.63;;;3.27;100.00
74346;BME280;62776;50.518;6.732;2024-01-06T11:44:38;95844.97;;;3.38;100.00
74346;BME280;62776;50.518;6.732;2024-01-06T11:47:24;95852.69;;;3.40;100.00
74346;BME280;62776;50.518;6.732;2024-01-06T11:50:11;95846.72;;;3.42;100.00
74346;BME280;62776;50.518;6.732;2024-01-06T11:52:57;95850.97;;;3.42;100.00
74346;BME280;62776;50.518;6.732;2024-01-06T11:55:53;95853.47;;;3.30;100.00
74346;BME280;62776;50.518;6.732;2024-01-06T11:58:40;95858.66;;;3.37;100.00
74346;BME280;62776;50.518;6.732;2024-01-06T12:01:37;95846.66;;;3.33;100.00
74346;BME280;62776;50.518;6.732;2024-01-06T12:04:24;95861.25;;;3.40;100.00
74346;BME280;62776;50.518;6.732;2024-01-06T12:07:13;95848.38;;;3.34;100.00
74346;BME280;62776;50.518;6.732;2024-01-06T12:10:02;95850.91;;;3.30;100.00
74346;BME280;62776;50.518;6.732;2024-01-06T12:15:52;95837.16;;;3.22;100.00
74346;BME280;62776;50.518;6.732;2024-01-06T12:18:39;95842.25;;;3.19;100.00
74346;BME280;62776;50.518;6.732;2024-01-06T12:21:27;95844.84;;;3.17;100.00
74346;BME280;62776;50.518;6.732;2024-01-06T12:24:16;95840.50;;;3.09;100.00
74346;BME280;62776;50.518;6.732;2024-01-06T12:27:06;95837.94;;;3.09;100.00
74346;BME280;62776;50.518;6.732;2024-01-06T12:29:53;95842.19;;;3.07;100.00
74346;BME280;62776;50.518;6.732;2024-01-06T12:32:42;95842.91;;;2.89;100.00
74346;BME280;62776;50.518;6.732;2024-01-06T12:35:29;95840.34;;;2.87;100.00
74346;BME280;62776;50.518;6.732;2024-01-06T12:38:15;95849.81;;;2.94;100.00
74346;BME280;62776;50.518;6.732;2024-01-06T12:41:12;95843.72;;;2.83;100.00
74346;BME280;62776;50.518;6.732;2024-01-06T12:44:01;95842.91;;;2.89;100.00
74346;BME280;62776;50.518;6.732;2024-01-06T12:46:51;95840.31;;;2.83;100.00
74346;BME280;62776;50.518;6.732;2024-01-06T12:49:38;95852.31;;;2.88;100.00
74346;BME280;62776;50.518;6.732;2024-01-06T12:52:27;95856.59;;;2.86;100.00
74346;BME280;62776;50.518;6.732;2024-01-06T12:55:13;95855.78;;;2.90;100.00
74346;BME280;62776;50.518;6.732;2024-01-06T12:57:59;95855.81;;;2.96;100.00
74346;BME280;62776;50.518;6.732;2024-01-06T13:00:49;95860.97;;;2.99;100.00
74346;BME280;62776;50.518;6.732;2024-01-06T13:03:35;95860.97;;;2.99;100.00
74346;BME280;62776;50.518;6.732;2024-01-06T13:06:22;95864.41;;;3.02;100.00
74346;BME280;62776;50.518;6.732;2024-01-06T13:09:08;95868.69;;;3.01;100.00
74346;BME280;62776;50.518;6.732;2024-01-06T13:11:55;95868.75;;;3.07;100.00
74346;BME280;62776;50.518;6.732;2024-01-06T13:14:46;95873.84;;;3.06;100.00
74346;BME280;62776;50.518;6.732;2024-01-06T13:17:35;95875.53;;;3.05;100.00
74346;BME280;62776;50.518;6.732;2024-01-06T13:20:22;95875.63;;;3.13;100.00
74346;BME280;62776;50.518;6.732;2024-01-06T13:23:08;95879.88;;;3.09;100.00
74346;BME280;62776;50.518;6.732;2024-01-06T13:25:55;95886.69;;;3.06;100.00
74346;BME280;62776;50.518;6.732;2024-01-06T13:28:43;95890.94;;;3.05;100.00
74346;BME280;62776;50.518;6.732;2024-01-06T13:31:30;95884.06;;;2.99;100.00
74346;BME280;62776;50.518;6.732;2024-01-06T13:34:20;95884.84;;;2.89;100.00
74346;BME280;62776;50.518;6.732;2024-01-06T13:37:08;95889.06;;;2.86;100.00
74346;BME280;62776;50.518;6.732;2024-01-06T13:39:56;95889.94;;;2.86;100.00
74346;BME280;62776;50.518;6.732;2024-01-06T13:42:42;95888.25;;;2.88;100.00
74346;BME280;62776;50.518;6.732;2024-01-06T13:45:28;95889.97;;;2.89;100.00
74346;BME280;62776;50.518;6.732;2024-01-06T13:48:16;95896.78;;;2.84;100.00
74346;BME280;62776;50.518;6.732;2024-01-06T13:51:02;95900.19;;;2.83;100.00
74346;BME280;62776;50.518;6.732;2024-01-06T13:53:48;95897.63;;;2.82;100.00
74346;BME280;62776;50.518;6.732;2024-01-06T13:56:35;95909.59;;;2.81;100.00
74346;BME280;62776;50.518;6.732;2024-01-06T13:59:21;95906.19;;;2.82;100.00
74346;BME280;62776;50.518;6.732;2024-01-06T14:02:08;95913.00;;;2.82;100.00
74346;BME280;62776;50.518;6.732;2024-01-06T14:04:55;95915.63;;;2.89;100.00
74346;BME280;62776;50.518;6.732;2024-01-06T14:07:42;95922.44;;;2.86;100.00
74346;BME280;62776;50.518;6.732;2024-01-06T14:10:31;95929.31;;;2.85;100.00
74346;BME280;62776;50.518;6.732;2024-01-06T14:13:20;95927.56;;;2.84;100.00
74346;BME280;62776;50.518;6.732;2024-01-06T14:16:06;95927.59;;;2.87;100.00
74346;BME280;62776;50.518;6.732;2024-01-06T14:18:54;95933.59;;;2.88;100.00
74346;BME280;62776;50.518;6.732;2024-01-06T14:21:44;95936.09;;;2.83;100.00
74346;BME280;62776;50.518;6.732;2024-01-06T14:24:30;95936.16;;;2.89;100.00
74346;BME280;62776;50.518;6.732;2024-01-06T14:27:17;95932.78;;;2.93;100.00
74346;BME280;62776;50.518;6.732;2024-01-06T14:30:06;95939.63;;;2.94;100.00
74346;BME280;62776;50.518;6.732;2024-01-06T14:32:56;95944.75;;;2.93;100.00
74346;BME280;62776;50.518;6.732;2024-01-06T14:35:44;95946.47;;;2.94;100.00
74346;BME280;62776;50.518;6.732;2024-01-06T14:38:30;95944.72;;;2.91;100.00
74346;BME280;62776;50.518;6.732;2024-01-06T14:41:16;95950.75;;;2.93;100.00
74346;BME280;62776;50.518;6.732;2024-01-06T14:44:05;95955.09;;;3.01;100.00
74346;BME280;62776;50.518;6.732;2024-01-06T14:46:52;95961.09;;;3.01;100.00
74346;BME280;62776;50.518;6.732;2024-01-06T14:49:39;95959.41;;;3.05;100.00
74346;BME280;62776;50.518;6.732;2024-01-06T14:52:25;95964.56;;;3.05;100.00